sensor_id;sensor_type;location;lat;lon;timestamp;temperature;humidity
70269;DHT22;58514;48.398;-4.274;2022-10-16T00:02:16;13.80;99.90
70269;DHT22;58514;48.398;-4.274;2022-10-16T00:04:41;13.80;99.90
70269;DHT22;58514;48.398;-4.274;2022-10-16T00:07:07;13.80;99.90
70269;DHT22;58514;48.398;-4.274;2022-10-16T00:09:32;13.80;99.90
70269;DHT22;58514;48.398;-4.274;2022-10-16T00:11:58;13.80;99.90
70269;DHT22;58514;48.398;-4.274;2022-10-16T00:14:23;13.80;99.90
70269;DHT22;58514;48.398;-4.274;2022-10-16T00:16:49;13.80;99.90
70269;DHT22;58514;48.398;-4.274;2022-10-16T00:19:14;13.70;99.90
70269;DHT22;58514;48.398;-4.274;2022-10-16T00:21:41;13.70;99.90
70269;DHT22;58514;48.398;-4.274;2022-10-16T00:24:08;13.70;99.90
70269;DHT22;58514;48.398;-4.274;2022-10-16T00:26:35;13.70;99.90
70269;DHT22;58514;48.398;-4.274;2022-10-16T00:29:01;13.70;99.90
70269;DHT22;58514;48.398;-4.274;2022-10-16T00:31:27;13.60;99.90
70269;DHT22;58514;48.398;-4.274;2022-10-16T00:33:52;13.60;99.90
70269;DHT22;58514;48.398;-4.274;2022-10-16T00:36:19;13.60;99.90
70269;DHT22;58514;48.398;-4.274;2022-10-16T00:38:45;13.60;99.90
70269;DHT22;58514;48.398;-4.274;2022-10-16T00:41:12;13.50;99.90
70269;DHT22;58514;48.398;-4.274;2022-10-16T00:43:45;13.50;99.90
70269;DHT22;58514;48.398;-4.274;2022-10-16T00:48:39;13.50;99.90
70269;DHT22;58514;48.398;-4.274;2022-10-16T00:51:05;13.50;99.90
70269;DHT22;58514;48.398;-4.274;2022-10-16T00:53:31;13.50;99.90
70269;DHT22;58514;48.398;-4.274;2022-10-16T00:55:56;13.50;99.90
70269;DHT22;58514;48.398;-4.274;2022-10-16T00:58:22;13.50;99.90
70269;DHT22;58514;48.398;-4.274;2022-10-16T01:00:48;13.50;99.90
70269;DHT22;58514;48.398;-4.274;2022-10-16T01:08:39;13.50;99.90
70269;DHT22;58514;48.398;-4.274;2022-10-16T01:11:28;13.50;99.90
70269;DHT22;58514;48.398;-4.274;2022-10-16T01:13:55;13.50;99.90
70269;DHT22;58514;48.398;-4.274;2022-10-16T01:16:34;13.50;99.90
70269;DHT22;58514;48.398;-4.274;2022-10-16T01:21:30;13.50;99.90
70269;DHT22;58514;48.398;-4.274;2022-10-16T01:29:03;13.40;99.90
70269;DHT22;58514;48.398;-4.274;2022-10-16T01:31:31;13.30;99.90
70269;DHT22;58514;48.398;-4.274;2022-10-16T01:34:10;13.30;99.90
70269;DHT22;58514;48.398;-4.274;2022-10-16T01:36:39;13.30;99.90
70269;DHT22;58514;48.398;-4.274;2022-10-16T01:39:05;13.30;99.90
70269;DHT22;58514;48.398;-4.274;2022-10-16T01:41:33;13.30;99.90
70269;DHT22;58514;48.398;-4.274;2022-10-16T01:44:04;13.20;99.90
70269;DHT22;58514;48.398;-4.274;2022-10-16T01:46:33;13.20;99.90
70269;DHT22;58514;48.398;-4.274;2022-10-16T01:49:00;13.20;99.90
70269;DHT22;58514;48.398;-4.274;2022-10-16T01:51:27;13.20;99.90
70269;DHT22;58514;48.398;-4.274;2022-10-16T01:53:54;13.10;99.90
70269;DHT22;58514;48.398;-4.274;2022-10-16T01:56:21;13.20;99.90
70269;DHT22;58514;48.398;-4.274;2022-10-16T01:58:53;13.10;99.90
70269;DHT22;58514;48.398;-4.274;2022-10-16T02:01:20;13.10;99.90
70269;DHT22;58514;48.398;-4.274;2022-10-16T02:03:48;13.10;99.90
70269;DHT22;58514;48.398;-4.274;2022-10-16T02:06:14;13.10;99.90
70269;DHT22;58514;48.398;-4.274;2022-10-16T02:08:39;13.10;99.90
70269;DHT22;58514;48.398;-4.274;2022-10-16T02:11:09;13.10;99.90
70269;DHT22;58514;48.398;-4.274;2022-10-16T02:13:40;13.10;99.90
70269;DHT22;58514;48.398;-4.274;2022-10-16T02:16:10;13.10;99.90
70269;DHT22;58514;48.398;-4.274;2022-10-16T02:18:36;13.10;99.90
70269;DHT22;58514;48.398;-4.274;2022-10-16T02:21:19;13.10;99.90
70269;DHT22;58514;48.398;-4.274;2022-10-16T02:23:54;13.10;99.90
70269;DHT22;58514;48.398;-4.274;2022-10-16T02:26:43;13.00;99.90
70269;DHT22;58514;48.398;-4.274;2022-10-16T02:29:08;13.00;99.90
70269;DHT22;58514;48.398;-4.274;2022-10-16T02:31:35;13.00;99.90
70269;DHT22;58514;48.398;-4.274;2022-10-16T02:34:03;13.00;99.90
70269;DHT22;58514;48.398;-4.274;2022-10-16T02:36:30;13.00;99.90
70269;DHT22;58514;48.398;-4.274;2022-10-16T02:38:56;13.00;99.90
70269;DHT22;58514;48.398;-4.274;2022-10-16T02:41:22;13.00;99.90
70269;DHT22;58514;48.398;-4.274;2022-10-16T02:43:48;13.00;99.90
70269;DHT22;58514;48.398;-4.274;2022-10-16T02:46:14;13.00;99.90
70269;DHT22;58514;48.398;-4.274;2022-10-16T02:48:40;13.00;99.90
70269;DHT22;58514;48.398;-4.274;2022-10-16T02:51:06;12.90;99.90
70269;DHT22;58514;48.398;-4.274;2022-10-16T02:53:31;12.90;99.90
70269;DHT22;58514;48.398;-4.274;2022-10-16T02:55:57;12.90;99.90
70269;DHT22;58514;48.398;-4.274;2022-10-16T02:58:22;12.90;99.90
70269;DHT22;58514;48.398;-4.274;2022-10-16T03:00:48;12.90;99.90
70269;DHT22;58514;48.398;-4.274;2022-10-16T03:03:13;12.90;99.90
70269;DHT22;58514;48.398;-4.274;2022-10-16T03:05:39;12.90;99.90
70269;DHT22;58514;48.398;-4.274;2022-10-16T03:08:04;12.90;99.90
70269;DHT22;58514;48.398;-4.274;2022-10-16T03:10:30;12.90;99.90
70269;DHT22;58514;48.398;-4.274;2022-10-16T03:12:56;12.90;99.90
70269;DHT22;58514;48.398;-4.274;2022-10-16T03:15:21;12.90;99.90
70269;DHT22;58514;48.398;-4.274;2022-10-16T03:17:47;12.90;99.90
70269;DHT22;58514;48.398;-4.274;2022-10-16T03:20:12;12.80;99.90
70269;DHT22;58514;48.398;-4.274;2022-10-16T03:22:38;12.80;99.90
70269;DHT22;58514;48.398;-4.274;2022-10-16T03:25:03;12.80;99.90
70269;DHT22;58514;48.398;-4.274;2022-10-16T03:27:29;12.80;99.90
70269;DHT22;58514;48.398;-4.274;2022-10-16T03:29:55;12.80;99.90
70269;DHT22;58514;48.398;-4.274;2022-10-16T03:32:20;12.80;99.90
70269;DHT22;58514;48.398;-4.274;2022-10-16T03:34:46;12.80;99.90
70269;DHT22;58514;48.398;-4.274;2022-10-16T03:37:12;12.80;99.90
70269;DHT22;58514;48.398;-4.274;2022-10-16T03:39:38;12.80;99.90
70269;DHT22;58514;48.398;-4.274;2022-10-16T03:42:03;12.80;99.90
70269;DHT22;58514;48.398;-4.274;2022-10-16T03:44:29;12.80;99.90
70269;DHT22;58514;48.398;-4.274;2022-10-16T03:46:54;12.80;99.90
70269;DHT22;58514;48.398;-4.274;2022-10-16T03:49:20;12.80;99.90
70269;DHT22;58514;48.398;-4.274;2022-10-16T03:51:45;12.80;99.90
70269;DHT22;58514;48.398;-4.274;2022-10-16T03:54:11;12.80;99.90
70269;DHT22;58514;48.398;-4.274;2022-10-16T03:56:36;12.80;99.90
70269;DHT22;58514;48.398;-4.274;2022-10-16T03:59:02;12.80;99.90
70269;DHT22;58514;48.398;-4.274;2022-10-16T04:01:28;12.70;99.90
70269;DHT22;58514;48.398;-4.274;2022-10-16T04:03:53;12.70;99.90
70269;DHT22;58514;48.398;-4.274;2022-10-16T04:06:19;12.70;99.90
70269;DHT22;58514;48.398;-4.274;2022-10-16T04:08:44;12.70;99.90
70269;DHT22;58514;48.398;-4.274;2022-10-16T04:11:10;12.70;99.90
70269;DHT22;58514;48.398;-4.274;2022-10-16T04:13:36;12.70;99.90
70269;DHT22;58514;48.398;-4.274;2022-10-16T04:16:01;12.60;99.90
70269;DHT22;58514;48.398;-4.274;2022-10-16T04:18:27;12.60;99.90
70269;DHT22;58514;48.398;-4.274;2022-10-16T04:20:53;12.60;99.90
70269;DHT22;58514;48.398;-4.274;2022-10-16T04:23:19;12.60;99.90
70269;DHT22;58514;48.398;-4.274;2022-10-16T04:25:44;12.60;99.90
70269;DHT22;58514;48.398;-4.274;2022-10-16T04:28:10;12.60;99.90
70269;DHT22;58514;48.398;-4.274;2022-10-16T04:30:37;12.60;99.90
70269;DHT22;58514;48.398;-4.274;2022-10-16T04:33:03;12.60;99.90
70269;DHT22;58514;48.398;-4.274;2022-10-16T04:35:28;12.60;99.90
70269;DHT22;58514;48.398;-4.274;2022-10-16T04:37:56;12.60;99.90
70269;DHT22;58514;48.398;-4.274;2022-10-16T04:40:22;12.60;99.90
70269;DHT22;58514;48.398;-4.274;2022-10-16T04:42:47;12.60;99.90
70269;DHT22;58514;48.398;-4.274;2022-10-16T04:45:13;12.60;99.90
70269;DHT22;58514;48.398;-4.274;2022-10-16T04:47:38;12.60;99.90
70269;DHT22;58514;48.398;-4.274;2022-10-16T04:50:04;12.60;99.90
70269;DHT22;58514;48.398;-4.274;2022-10-16T04:52:30;12.60;99.90
70269;DHT22;58514;48.398;-4.274;2022-10-16T04:54:57;12.60;99.90
70269;DHT22;58514;48.398;-4.274;2022-10-16T04:57:26;12.50;99.90
70269;DHT22;58514;48.398;-4.274;2022-10-16T04:59:52;12.50;99.90
70269;DHT22;58514;48.398;-4.274;2022-10-16T05:02:17;12.50;99.90
70269;DHT22;58514;48.398;-4.274;2022-10-16T05:04:43;12.50;99.90
70269;DHT22;58514;48.398;-4.274;2022-10-16T05:07:09;12.50;99.90
70269;DHT22;58514;48.398;-4.274;2022-10-16T05:09:34;12.50;99.90
70269;DHT22;58514;48.398;-4.274;2022-10-16T05:12:00;12.50;99.90
70269;DHT22;58514;48.398;-4.274;2022-10-16T05:14:25;12.50;99.90
70269;DHT22;58514;48.398;-4.274;2022-10-16T05:16:51;12.50;99.90
70269;DHT22;58514;48.398;-4.274;2022-10-16T05:19:17;12.50;99.90
70269;DHT22;58514;48.398;-4.274;2022-10-16T05:21:42;12.50;99.90
70269;DHT22;58514;48.398;-4.274;2022-10-16T05:24:08;12.50;99.90
70269;DHT22;58514;48.398;-4.274;2022-10-16T05:26:34;12.40;99.90
70269;DHT22;58514;48.398;-4.274;2022-10-16T05:29:00;12.40;99.90
70269;DHT22;58514;48.398;-4.274;2022-10-16T05:31:26;12.40;99.90
70269;DHT22;58514;48.398;-4.274;2022-10-16T05:33:51;12.50;99.90
70269;DHT22;58514;48.398;-4.274;2022-10-16T05:36:17;12.40;99.90
70269;DHT22;58514;48.398;-4.274;2022-10-16T05:38:43;12.50;99.90
70269;DHT22;58514;48.398;-4.274;2022-10-16T05:41:09;12.40;99.90
70269;DHT22;58514;48.398;-4.274;2022-10-16T05:43:34;12.50;99.90
70269;DHT22;58514;48.398;-4.274;2022-10-16T05:46:05;12.50;99.90
70269;DHT22;58514;48.398;-4.274;2022-10-16T05:48:31;12.40;99.90
70269;DHT22;58514;48.398;-4.274;2022-10-16T05:51:00;12.50;99.90
70269;DHT22;58514;48.398;-4.274;2022-10-16T05:53:27;12.50;99.90
70269;DHT22;58514;48.398;-4.274;2022-10-16T05:55:52;12.50;99.90
70269;DHT22;58514;48.398;-4.274;2022-10-16T05:58:19;12.40;99.90
70269;DHT22;58514;48.398;-4.274;2022-10-16T06:00:44;12.40;99.90
70269;DHT22;58514;48.398;-4.274;2022-10-16T06:03:10;12.40;99.90
70269;DHT22;58514;48.398;-4.274;2022-10-16T06:05:35;12.40;99.90
70269;DHT22;58514;48.398;-4.274;2022-10-16T06:08:01;12.40;99.90
70269;DHT22;58514;48.398;-4.274;2022-10-16T06:10:27;12.30;99.90
70269;DHT22;58514;48.398;-4.274;2022-10-16T06:12:54;12.30;99.90
70269;DHT22;58514;48.398;-4.274;2022-10-16T06:15:19;12.30;99.90
70269;DHT22;58514;48.398;-4.274;2022-10-16T06:17:45;12.30;99.90
70269;DHT22;58514;48.398;-4.274;2022-10-16T06:20:10;12.30;99.90
70269;DHT22;58514;48.398;-4.274;2022-10-16T06:22:36;12.30;99.90
70269;DHT22;58514;48.398;-4.274;2022-10-16T06:25:02;12.20;99.90
70269;DHT22;58514;48.398;-4.274;2022-10-16T06:27:27;12.20;99.90
70269;DHT22;58514;48.398;-4.274;2022-10-16T06:29:53;12.20;99.90
70269;DHT22;58514;48.398;-4.274;2022-10-16T06:32:18;12.20;99.90
70269;DHT22;58514;48.398;-4.274;2022-10-16T06:34:44;12.20;99.90
70269;DHT22;58514;48.398;-4.274;2022-10-16T06:37:09;12.20;99.90
70269;DHT22;58514;48.398;-4.274;2022-10-16T06:39:35;12.20;99.90
70269;DHT22;58514;48.398;-4.274;2022-10-16T06:42:01;12.20;99.90
70269;DHT22;58514;48.398;-4.274;2022-10-16T06:44:26;12.20;99.90
70269;DHT22;58514;48.398;-4.274;2022-10-16T06:46:52;12.20;99.90
70269;DHT22;58514;48.398;-4.274;2022-10-16T06:49:17;12.20;99.90
70269;DHT22;58514;48.398;-4.274;2022-10-16T06:51:47;12.30;99.90
70269;DHT22;58514;48.398;-4.274;2022-10-16T06:54:14;12.30;99.90
70269;DHT22;58514;48.398;-4.274;2022-10-16T06:56:40;12.30;99.90
70269;DHT22;58514;48.398;-4.274;2022-10-16T06:59:05;12.30;99.90
70269;DHT22;58514;48.398;-4.274;2022-10-16T07:01:31;12.30;99.90
70269;DHT22;58514;48.398;-4.274;2022-10-16T07:03:57;12.30;99.90
70269;DHT22;58514;48.398;-4.274;2022-10-16T07:06:23;12.30;99.90
70269;DHT22;58514;48.398;-4.274;2022-10-16T07:08:50;12.30;99.90
70269;DHT22;58514;48.398;-4.274;2022-10-16T07:11:20;12.40;99.90
70269;DHT22;58514;48.398;-4.274;2022-10-16T07:13:47;12.30;99.90
70269;DHT22;58514;48.398;-4.274;2022-10-16T07:16:17;12.40;99.90
70269;DHT22;58514;48.398;-4.274;2022-10-16T07:18:43;12.40;99.90
70269;DHT22;58514;48.398;-4.274;2022-10-16T07:21:20;12.40;99.90
70269;DHT22;58514;48.398;-4.274;2022-10-16T07:23:53;12.40;99.90
70269;DHT22;58514;48.398;-4.274;2022-10-16T07:26:18;12.40;99.90
70269;DHT22;58514;48.398;-4.274;2022-10-16T07:28:44;12.50;99.90
70269;DHT22;58514;48.398;-4.274;2022-10-16T07:31:11;12.50;99.90
70269;DHT22;58514;48.398;-4.274;2022-10-16T07:33:37;12.50;99.90
70269;DHT22;58514;48.398;-4.274;2022-10-16T07:36:03;12.50;99.90
70269;DHT22;58514;48.398;-4.274;2022-10-16T07:38:29;12.50;99.90
70269;DHT22;58514;48.398;-4.274;2022-10-16T07:40:56;12.60;99.90
70269;DHT22;58514;48.398;-4.274;2022-10-16T07:43:22;12.60;99.90
70269;DHT22;58514;48.398;-4.274;2022-10-16T07:45:48;12.60;99.90
70269;DHT22;58514;48.398;-4.274;2022-10-16T07:48:14;12.60;99.90
70269;DHT22;58514;48.398;-4.274;2022-10-16T07:50:40;12.60;99.90
70269;DHT22;58514;48.398;-4.274;2022-10-16T07:53:06;12.70;99.90
70269;DHT22;58514;48.398;-4.274;2022-10-16T07:55:32;12.70;99.90
70269;DHT22;58514;48.398;-4.274;2022-10-16T07:57:58;12.70;99.90
70269;DHT22;58514;48.398;-4.274;2022-10-16T08:00:23;12.80;99.90
70269;DHT22;58514;48.398;-4.274;2022-10-16T08:02:49;12.80;99.90
70269;DHT22;58514;48.398;-4.274;2022-10-16T08:05:14;12.80;99.90
70269;DHT22;58514;48.398;-4.274;2022-10-16T08:07:40;12.80;99.90
70269;DHT22;58514;48.398;-4.274;2022-10-16T08:10:05;12.80;99.90
70269;DHT22;58514;48.398;-4.274;2022-10-16T08:12:31;12.80;99.90
70269;DHT22;58514;48.398;-4.274;2022-10-16T08:14:57;12.80;99.90
70269;DHT22;58514;48.398;-4.274;2022-10-16T08:17:22;12.80;99.90
70269;DHT22;58514;48.398;-4.274;2022-10-16T08:19:48;12.90;99.90
70269;DHT22;58514;48.398;-4.274;2022-10-16T08:22:14;12.90;99.90
70269;DHT22;58514;48.398;-4.274;2022-10-16T08:24:39;13.00;99.90
70269;DHT22;58514;48.398;-4.274;2022-10-16T08:27:05;13.00;99.90
70269;DHT22;58514;48.398;-4.274;2022-10-16T08:29:31;13.00;99.90
70269;DHT22;58514;48.398;-4.274;2022-10-16T08:31:56;13.10;99.90
70269;DHT22;58514;48.398;-4.274;2022-10-16T08:34:22;13.10;99.90
70269;DHT22;58514;48.398;-4.274;2022-10-16T08:36:47;13.10;99.90
70269;DHT22;58514;48.398;-4.274;2022-10-16T08:39:13;13.20;99.90
70269;DHT22;58514;48.398;-4.274;2022-10-16T08:46:57;13.20;99.90
70269;DHT22;58514;48.398;-4.274;2022-10-16T08:49:27;13.30;99.90
70269;DHT22;58514;48.398;-4.274;2022-10-16T08:51:54;13.30;99.90
70269;DHT22;58514;48.398;-4.274;2022-10-16T08:54:23;13.30;99.90
70269;DHT22;58514;48.398;-4.274;2022-10-16T08:56:53;13.30;99.90
70269;DHT22;58514;48.398;-4.274;2022-10-16T08:59:19;13.40;99.90
70269;DHT22;58514;48.398;-4.274;2022-10-16T09:01:45;13.40;99.90
70269;DHT22;58514;48.398;-4.274;2022-10-16T09:06:58;13.40;99.90
70269;DHT22;58514;48.398;-4.274;2022-10-16T09:12:08;13.50;99.90
70269;DHT22;58514;48.398;-4.274;2022-10-16T09:19:44;13.60;99.90
70269;DHT22;58514;48.398;-4.274;2022-10-16T09:22:12;13.60;99.90
70269;DHT22;58514;48.398;-4.274;2022-10-16T09:24:39;13.60;99.90
70269;DHT22;58514;48.398;-4.274;2022-10-16T09:27:07;13.70;99.90
70269;DHT22;58514;48.398;-4.274;2022-10-16T09:29:33;13.70;99.90
70269;DHT22;58514;48.398;-4.274;2022-10-16T09:32:05;13.70;99.90
70269;DHT22;58514;48.398;-4.274;2022-10-16T09:34:35;13.70;99.90
70269;DHT22;58514;48.398;-4.274;2022-10-16T09:37:03;13.80;99.90
70269;DHT22;58514;48.398;-4.274;2022-10-16T09:39:29;13.80;99.90
70269;DHT22;58514;48.398;-4.274;2022-10-16T09:41:54;13.80;99.90
70269;DHT22;58514;48.398;-4.274;2022-10-16T09:44:23;13.80;99.90
70269;DHT22;58514;48.398;-4.274;2022-10-16T09:47:00;13.80;99.90
70269;DHT22;58514;48.398;-4.274;2022-10-16T09:49:26;13.80;99.90
70269;DHT22;58514;48.398;-4.274;2022-10-16T09:52:05;13.80;99.90
70269;DHT22;58514;48.398;-4.274;2022-10-16T09:54:31;13.80;99.90
70269;DHT22;58514;48.398;-4.274;2022-10-16T09:57:06;13.80;99.90
70269;DHT22;58514;48.398;-4.274;2022-10-16T09:59:32;13.80;99.90
70269;DHT22;58514;48.398;-4.274;2022-10-16T10:02:01;13.80;99.90
70269;DHT22;58514;48.398;-4.274;2022-10-16T10:04:36;13.80;99.90
70269;DHT22;58514;48.398;-4.274;2022-10-16T10:07:03;13.80;99.90
70269;DHT22;58514;48.398;-4.274;2022-10-16T10:09:32;13.80;99.90
70269;DHT22;58514;48.398;-4.274;2022-10-16T10:11:59;13.90;99.90
70269;DHT22;58514;48.398;-4.274;2022-10-16T10:17:07;13.90;99.90
70269;DHT22;58514;48.398;-4.274;2022-10-16T10:19:41;13.90;99.90
70269;DHT22;58514;48.398;-4.274;2022-10-16T10:22:41;13.90;99.90
70269;DHT22;58514;48.398;-4.274;2022-10-16T10:25:00;14.00;99.90
70269;DHT22;58514;48.398;-4.274;2022-10-16T10:27:38;13.90;99.90
70269;DHT22;58514;48.398;-4.274;2022-10-16T10:30:21;14.00;99.90
70269;DHT22;58514;48.398;-4.274;2022-10-16T10:32:52;14.00;99.90
70269;DHT22;58514;48.398;-4.274;2022-10-16T10:35:30;14.00;99.90
70269;DHT22;58514;48.398;-4.274;2022-10-16T10:45:43;14.10;99.90
70269;DHT22;58514;48.398;-4.274;2022-10-16T10:51:08;14.20;99.90
70269;DHT22;58514;48.398;-4.274;2022-10-16T10:53:48;14.20;99.90
70269;DHT22;58514;48.398;-4.274;2022-10-16T11:09:40;14.40;99.90
70269;DHT22;58514;48.398;-4.274;2022-10-16T11:12:49;14.40;99.90
70269;DHT22;58514;48.398;-4.274;2022-10-16T11:14:58;14.40;99.90
70269;DHT22;58514;48.398;-4.274;2022-10-16T11:17:28;14.40;99.90
70269;DHT22;58514;48.398;-4.274;2022-10-16T11:20:00;14.50;99.90
70269;DHT22;58514;48.398;-4.274;2022-10-16T11:22:32;14.50;99.90
70269;DHT22;58514;48.398;-4.274;2022-10-16T11:25:21;14.50;99.90
70269;DHT22;58514;48.398;-4.274;2022-10-16T11:27:54;14.50;99.90
70269;DHT22;58514;48.398;-4.274;2022-10-16T11:30:23;14.60;99.90
70269;DHT22;58514;48.398;-4.274;2022-10-16T11:37:59;14.60;99.90
70269;DHT22;58514;48.398;-4.274;2022-10-16T11:43:15;14.70;99.90
70269;DHT22;58514;48.398;-4.274;2022-10-16T11:45:42;14.70;99.90
70269;DHT22;58514;48.398;-4.274;2022-10-16T11:48:12;14.70;99.90
70269;DHT22;58514;48.398;-4.274;2022-10-16T11:55:50;14.70;99.90
70269;DHT22;58514;48.398;-4.274;2022-10-16T12:01:17;14.80;99.90
70269;DHT22;58514;48.398;-4.274;2022-10-16T12:09:36;14.90;99.90
70269;DHT22;58514;48.398;-4.274;2022-10-16T12:11:59;14.90;99.90
70269;DHT22;58514;48.398;-4.274;2022-10-16T12:17:01;14.90;99.90
70269;DHT22;58514;48.398;-4.274;2022-10-16T12:19:28;15.00;99.90
70269;DHT22;58514;48.398;-4.274;2022-10-16T12:21:55;15.00;99.90
70269;DHT22;58514;48.398;-4.274;2022-10-16T12:24:22;15.00;99.90
70269;DHT22;58514;48.398;-4.274;2022-10-16T12:26:51;15.00;99.90
70269;DHT22;58514;48.398;-4.274;2022-10-16T12:29:36;15.00;99.90
70269;DHT22;58514;48.398;-4.274;2022-10-16T12:32:04;15.10;99.90
70269;DHT22;58514;48.398;-4.274;2022-10-16T12:37:07;15.10;99.90
70269;DHT22;58514;48.398;-4.274;2022-10-16T12:39:34;15.10;99.90
70269;DHT22;58514;48.398;-4.274;2022-10-16T12:42:05;15.10;99.90
70269;DHT22;58514;48.398;-4.274;2022-10-16T12:44:32;15.20;99.90
70269;DHT22;58514;48.398;-4.274;2022-10-16T12:46:58;15.20;99.90
70269;DHT22;58514;48.398;-4.274;2022-10-16T12:49:37;15.20;99.90
70269;DHT22;58514;48.398;-4.274;2022-10-16T12:52:03;15.30;99.90
70269;DHT22;58514;48.398;-4.274;2022-10-16T12:54:30;15.30;99.90
70269;DHT22;58514;48.398;-4.274;2022-10-16T12:59:30;15.40;99.90
70269;DHT22;58514;48.398;-4.274;2022-10-16T13:09:58;15.50;99.90
70269;DHT22;58514;48.398;-4.274;2022-10-16T13:17:45;15.50;99.90
70269;DHT22;58514;48.398;-4.274;2022-10-16T13:20:16;15.50;99.90
70269;DHT22;58514;48.398;-4.274;2022-10-16T13:22:59;15.50;99.90
70269;DHT22;58514;48.398;-4.274;2022-10-16T13:25:41;15.50;99.90
70269;DHT22;58514;48.398;-4.274;2022-10-16T13:28:10;15.60;99.90
70269;DHT22;58514;48.398;-4.274;2022-10-16T13:30:58;15.60;99.90
70269;DHT22;58514;48.398;-4.274;2022-10-16T13:35:57;15.70;99.90
70269;DHT22;58514;48.398;-4.274;2022-10-16T13:38:25;15.80;99.90
70269;DHT22;58514;48.398;-4.274;2022-10-16T13:43:22;15.80;99.90
70269;DHT22;58514;48.398;-4.274;2022-10-16T13:45:56;15.90;99.90
70269;DHT22;58514;48.398;-4.274;2022-10-16T13:48:22;15.90;99.90
70269;DHT22;58514;48.398;-4.274;2022-10-16T13:50:57;16.00;99.90
70269;DHT22;58514;48.398;-4.274;2022-10-16T13:53:23;16.00;99.90
70269;DHT22;58514;48.398;-4.274;2022-10-16T13:55:48;16.00;99.90
70269;DHT22;58514;48.398;-4.274;2022-10-16T13:58:14;16.00;99.90
70269;DHT22;58514;48.398;-4.274;2022-10-16T14:00:40;16.10;99.90
70269;DHT22;58514;48.398;-4.274;2022-10-16T14:03:11;16.00;99.90
70269;DHT22;58514;48.398;-4.274;2022-10-16T14:05:42;16.10;99.90
70269;DHT22;58514;48.398;-4.274;2022-10-16T14:08:10;16.00;99.90
70269;DHT22;58514;48.398;-4.274;2022-10-16T14:10:37;16.00;99.90
70269;DHT22;58514;48.398;-4.274;2022-10-16T14:13:04;16.10;99.90
70269;DHT22;58514;48.398;-4.274;2022-10-16T14:15:31;16.10;99.90
70269;DHT22;58514;48.398;-4.274;2022-10-16T14:17:58;16.10;99.90
70269;DHT22;58514;48.398;-4.274;2022-10-16T14:20:28;16.10;99.90
70269;DHT22;58514;48.398;-4.274;2022-10-16T14:25:30;16.10;99.90
70269;DHT22;58514;48.398;-4.274;2022-10-16T14:27:56;16.10;99.90
70269;DHT22;58514;48.398;-4.274;2022-10-16T14:30:22;16.10;99.90
70269;DHT22;58514;48.398;-4.274;2022-10-16T14:32:57;16.10;99.90
70269;DHT22;58514;48.398;-4.274;2022-10-16T14:35:24;16.10;99.90
70269;DHT22;58514;48.398;-4.274;2022-10-16T14:37:53;16.10;99.90
70269;DHT22;58514;48.398;-4.274;2022-10-16T14:40:20;16.10;99.90
70269;DHT22;58514;48.398;-4.274;2022-10-16T14:42:46;16.10;99.90
70269;DHT22;58514;48.398;-4.274;2022-10-16T14:45:11;16.10;99.90
70269;DHT22;58514;48.398;-4.274;2022-10-16T14:47:37;16.10;99.90
70269;DHT22;58514;48.398;-4.274;2022-10-16T14:50:12;16.10;99.90
70269;DHT22;58514;48.398;-4.274;2022-10-16T14:52:37;16.10;99.90
70269;DHT22;58514;48.398;-4.274;2022-10-16T14:55:03;16.10;99.90
70269;DHT22;58514;48.398;-4.274;2022-10-16T14:57:29;16.10;99.90
70269;DHT22;58514;48.398;-4.274;2022-10-16T14:59:57;16.20;99.90
70269;DHT22;58514;48.398;-4.274;2022-10-16T15:02:25;16.10;99.90
70269;DHT22;58514;48.398;-4.274;2022-10-16T15:04:52;16.10;99.90
70269;DHT22;58514;48.398;-4.274;2022-10-16T15:07:18;16.10;99.90
70269;DHT22;58514;48.398;-4.274;2022-10-16T15:09:43;16.10;99.90
70269;DHT22;58514;48.398;-4.274;2022-10-16T15:12:09;16.10;99.90
70269;DHT22;58514;48.398;-4.274;2022-10-16T15:14:34;16.20;99.90
70269;DHT22;58514;48.398;-4.274;2022-10-16T15:17:00;16.20;99.90
70269;DHT22;58514;48.398;-4.274;2022-10-16T15:19:25;16.20;99.90
70269;DHT22;58514;48.398;-4.274;2022-10-16T15:21:51;16.20;99.90
70269;DHT22;58514;48.398;-4.274;2022-10-16T15:24:17;16.20;99.90
70269;DHT22;58514;48.398;-4.274;2022-10-16T15:26:43;16.20;99.90
70269;DHT22;58514;48.398;-4.274;2022-10-16T15:29:11;16.20;99.90
70269;DHT22;58514;48.398;-4.274;2022-10-16T15:31:37;16.20;99.90
70269;DHT22;58514;48.398;-4.274;2022-10-16T15:34:03;16.20;99.90
70269;DHT22;58514;48.398;-4.274;2022-10-16T15:36:34;16.20;99.90
70269;DHT22;58514;48.398;-4.274;2022-10-16T15:39:10;16.20;99.90
70269;DHT22;58514;48.398;-4.274;2022-10-16T15:41:37;16.30;99.90
70269;DHT22;58514;48.398;-4.274;2022-10-16T15:44:02;16.20;99.90
70269;DHT22;58514;48.398;-4.274;2022-10-16T15:46:28;16.20;99.90
70269;DHT22;58514;48.398;-4.274;2022-10-16T15:48:57;16.20;99.90
70269;DHT22;58514;48.398;-4.274;2022-10-16T15:51:23;16.30;99.90
70269;DHT22;58514;48.398;-4.274;2022-10-16T15:53:48;16.30;99.90
70269;DHT22;58514;48.398;-4.274;2022-10-16T15:56:16;16.30;99.90
70269;DHT22;58514;48.398;-4.274;2022-10-16T15:58:42;16.30;99.90
70269;DHT22;58514;48.398;-4.274;2022-10-16T16:01:08;16.30;99.90
70269;DHT22;58514;48.398;-4.274;2022-10-16T16:03:35;16.30;99.90
70269;DHT22;58514;48.398;-4.274;2022-10-16T16:06:05;16.30;99.90
70269;DHT22;58514;48.398;-4.274;2022-10-16T16:08:31;16.30;99.90
70269;DHT22;58514;48.398;-4.274;2022-10-16T16:11:08;16.30;99.90
70269;DHT22;58514;48.398;-4.274;2022-10-16T16:13:34;16.40;99.90
70269;DHT22;58514;48.398;-4.274;2022-10-16T16:15:59;16.40;99.90
70269;DHT22;58514;48.398;-4.274;2022-10-16T16:18:25;16.40;99.90
70269;DHT22;58514;48.398;-4.274;2022-10-16T16:20:51;16.40;99.90
70269;DHT22;58514;48.398;-4.274;2022-10-16T16:23:17;16.40;99.90
70269;DHT22;58514;48.398;-4.274;2022-10-16T16:25:43;16.40;99.90
70269;DHT22;58514;48.398;-4.274;2022-10-16T16:28:08;16.40;99.90
70269;DHT22;58514;48.398;-4.274;2022-10-16T16:30:36;16.40;99.90
70269;DHT22;58514;48.398;-4.274;2022-10-16T16:33:01;16.40;99.90
70269;DHT22;58514;48.398;-4.274;2022-10-16T16:35:27;16.40;99.90
70269;DHT22;58514;48.398;-4.274;2022-10-16T16:37:52;16.40;99.90
70269;DHT22;58514;48.398;-4.274;2022-10-16T16:40:18;16.40;99.90
70269;DHT22;58514;48.398;-4.274;2022-10-16T16:42:44;16.40;99.90
70269;DHT22;58514;48.398;-4.274;2022-10-16T16:45:09;16.40;99.90
70269;DHT22;58514;48.398;-4.274;2022-10-16T16:47:35;16.40;99.90
70269;DHT22;58514;48.398;-4.274;2022-10-16T16:50:00;16.40;99.90
70269;DHT22;58514;48.398;-4.274;2022-10-16T16:52:30;16.40;99.90
70269;DHT22;58514;48.398;-4.274;2022-10-16T16:54:55;16.40;99.90
70269;DHT22;58514;48.398;-4.274;2022-10-16T16:57:21;16.40;99.90
70269;DHT22;58514;48.398;-4.274;2022-10-16T16:59:46;16.40;99.90
70269;DHT22;58514;48.398;-4.274;2022-10-16T17:02:14;16.40;99.90
70269;DHT22;58514;48.398;-4.274;2022-10-16T17:04:40;16.40;99.90
70269;DHT22;58514;48.398;-4.274;2022-10-16T17:07:06;16.40;99.90